Time;durP1;ratioP1;P1;durP2;ratioP2;P2;SDS_P1;SDS_P2;PMS_P1;PMS_P2;Temp;Humidity;BMP_temperature;BMP_pressure;BME280_temperature;BME280_humidity;BME280_pressure;Samples;Min_cycle;Max_cycle;Signal;HPM_P1;HPM_P2
2024/04/05 00:01:08;;;;;;;10.23;3.85;;;;;;;31.31;86.20;100805.78;5048063;28;66675;-33
2024/04/05 00:03:37;;;;;;;4.20;3.53;;;;;;;31.33;83.77;100803.69;5044078;28;70601;-32
2024/04/05 00:06:06;;;;;;;7.88;4.25;;;;;;;31.35;86.09;100807.00;5055018;28;66427;-33
2024/04/05 00:08:35;;;;;;;7.13;3.65;;;;;;;31.41;86.17;100810.72;5049873;28;70260;-33
2024/04/05 00:11:04;;;;;;;6.65;3.90;;;;;;;31.40;84.37;100809.91;5050807;28;66682;-32
2024/04/05 00:13:35;;;;;;;3.95;3.55;;;;;;;31.43;87.27;100820.28;5046446;28;69551;-33
2024/04/05 00:16:08;;;;;;;8.25;3.85;;;;;;;31.42;85.41;100821.31;5047835;28;65734;-33
2024/04/05 00:18:37;;;;;;;6.28;3.50;;;;;;;31.26;84.36;100782.09;5048409;28;69501;-33
2024/04/05 00:21:06;;;;;;;5.57;3.83;;;;;;;31.51;88.44;100821.84;5040347;28;65679;-33
2024/04/05 00:23:37;;;;;;;6.20;4.28;;;;;;;31.52;86.34;100823.53;5015944;28;69744;-33
2024/04/05 00:26:06;;;;;;;4.95;4.45;;;;;;;31.53;84.86;100826.00;5039486;28;65531;-35
2024/04/05 00:28:36;;;;;;;4.63;4.20;;;;;;;31.55;86.25;100829.31;5031084;28;69351;-34
2024/04/05 00:31:05;;;;;;;4.85;4.25;;;;;;;31.58;85.17;100834.28;5039140;28;66345;-33
2024/04/05 00:33:35;;;;;;;6.32;3.67;;;;;;;31.57;87.96;100835.34;5037115;28;69602;-33
2024/04/05 00:36:05;;;;;;;7.50;3.72;;;;;;;31.59;85.30;100835.97;5031170;28;66674;-33
2024/04/05 00:38:34;;;;;;;4.68;3.63;;;;;;;31.63;85.59;100846.34;5033525;28;69404;-32
2024/04/05 00:41:03;;;;;;;4.28;3.42;;;;;;;31.64;85.02;100848.00;5031000;28;66134;-33
2024/04/05 00:43:31;;;;;;;5.20;3.30;;;;;;;31.65;87.19;100849.63;5019560;28;69784;-33
2024/04/05 00:46:02;;;;;;;3.90;3.50;;;;;;;31.67;85.46;100858.38;5023460;28;66736;-32
2024/04/05 00:48:33;;;;;;;4.00;3.60;;;;;;;31.69;84.89;100867.13;5030832;28;70083;-42
2024/04/05 00:51:06;;;;;;;5.13;3.30;;;;;;;31.69;85.14;100865.25;5038788;28;66531;-32
2024/04/05 00:53:35;;;;;;;4.75;3.63;;;;;;;31.70;85.32;100868.78;5023251;28;71511;-33
2024/04/05 00:56:05;;;;;;;3.72;3.35;;;;;;;31.73;85.15;100869.19;5038785;28;65695;-33
2024/04/05 00:58:34;;;;;;;6.28;3.85;;;;;;;31.75;85.10;100879.78;5038258;28;70475;-33
2024/04/05 01:01:03;;;;;;;4.50;3.70;;;;;;;31.77;85.08;100883.09;5023731;28;65533;-33
2024/04/05 01:03:32;;;;;;;4.40;4.00;;;;;;;31.79;84.93;100886.41;5039531;28;70686;-32
2024/04/05 01:06:01;;;;;;;4.30;3.90;;;;;;;31.73;85.30;100879.16;5037744;28;67024;-32
2024/04/05 01:08:31;;;;;;;3.42;3.13;;;;;;;31.80;85.05;100886.19;5038946;28;70204;-33
2024/04/05 01:10:59;;;;;;;4.82;3.40;;;;;;;31.78;85.22;100887.47;5036759;28;65648;-33
2024/04/05 01:13:28;;;;;;;3.05;2.67;;;;;;;31.80;85.18;100885.34;5021890;28;69837;-33
2024/04/05 01:15:57;;;;;;;4.13;3.50;;;;;;;31.89;84.57;100900.25;5037080;28;65922;-34
2024/04/05 01:18:27;;;;;;;5.25;3.35;;;;;;;31.89;84.95;100905.69;5039045;28;71930;-33
2024/04/05 01:20:56;;;;;;;9.10;3.13;;;;;;;31.74;85.33;100881.66;5039168;28;66968;-33
2024/04/05 01:23:29;;;;;;;4.88;3.58;;;;;;;31.92;85.15;100910.69;5040013;28;70079;-33
2024/04/05 01:25:58;;;;;;;4.68;3.70;;;;;;;31.93;84.87;100917.78;5040351;28;66143;-33
2024/04/05 01:28:26;;;;;;;3.97;3.67;;;;;;;31.92;84.99;100921.53;5039541;28;70658;-33
2024/04/05 01:30:55;;;;;;;3.47;3.00;;;;;;;31.92;85.08;100926.16;5039845;28;66259;-34
2024/04/05 01:33:24;;;;;;;3.67;3.38;;;;;;;31.90;85.02;100922.78;5033042;28;69966;-34
2024/04/05 01:35:53;;;;;;;4.68;3.33;;;;;;;31.94;84.89;100926.75;5034443;28;66634;-33
2024/04/05 01:38:22;;;;;;;3.80;3.50;;;;;;;31.94;84.57;100927.56;5036148;28;70223;-34
2024/04/05 01:40:51;;;;;;;6.68;3.17;;;;;;;31.94;85.04;100919.44;5031006;28;65355;-33
2024/04/05 01:43:19;;;;;;;4.60;3.83;;;;;;;31.94;84.54;100908.59;5036170;28;69983;-33
2024/04/05 01:45:48;;;;;;;3.65;3.35;;;;;;;31.96;84.76;100909.19;5038824;28;66817;-33
2024/04/05 01:48:17;;;;;;;4.38;3.00;;;;;;;31.97;84.55;100912.72;5001887;28;69099;-33
2024/04/05 01:50:45;;;;;;;4.07;3.65;;;;;;;31.91;84.45;100895.47;5036049;28;66658;-33
2024/04/05 01:53:14;;;;;;;3.60;3.30;;;;;;;32.00;84.63;100902.25;5037215;28;70437;-33
2024/04/05 01:55:43;;;;;;;3.85;3.47;;;;;;;32.02;84.45;100905.56;5039828;28;65740;-32
2024/04/05 01:58:13;;;;;;;3.55;3.33;;;;;;;32.00;84.25;100896.81;5036425;28;70173;-32
2024/04/05 02:00:42;;;;;;;3.72;3.38;;;;;;;32.03;84.57;100895.53;5022375;28;66155;-33
2024/04/05 02:03:11;;;;;;;4.07;3.70;;;;;;;32.08;84.90;100901.13;5032844;28;69911;-33
2024/04/05 02:05:40;;;;;;;7.63;5.15;;;;;;;32.10;85.45;100895.47;5033162;28;66555;-33
2024/04/05 02:08:08;;;;;;;5.55;5.07;;;;;;;32.14;85.44;100896.66;5035355;28;68416;-34
2024/04/05 02:10:37;;;;;;;4.80;4.40;;;;;;;32.17;85.74;100901.63;5037827;28;66565;-33
2024/04/05 02:13:06;;;;;;;5.28;3.97;;;;;;;32.17;85.87;100894.31;5037445;28;70161;-33
2024/04/05 02:15:35;;;;;;;6.28;3.88;;;;;;;32.17;85.94;100896.19;5038543;28;66696;-33
2024/04/05 02:18:08;;;;;;;4.38;4.05;;;;;;;32.23;85.81;100900.69;5017356;28;70431;-33
2024/04/05 02:20:39;;;;;;;5.60;4.50;;;;;;;32.22;85.38;100889.03;5034498;28;66647;-33
2024/04/05 02:23:08;;;;;;;4.97;4.57;;;;;;;32.25;85.47;100898.59;5026922;28;71516;-32
2024/04/05 02:25:37;;;;;;;4.55;4.22;;;;;;;32.29;85.37;100888.94;5033795;28;65638;-33
2024/04/05 02:28:06;;;;;;;4.55;4.15;;;;;;;32.30;85.34;100885.16;5033994;28;69664;-34
2024/04/05 02:30:38;;;;;;;4.13;3.83;;;;;;;32.33;85.44;100890.13;5036343;28;65909;-34
2024/04/05 02:33:07;;;;;;;7.63;4.22;;;;;;;32.38;84.96;100892.16;5038196;28;70841;-33
2024/04/05 02:35:36;;;;;;;5.93;4.85;;;;;;;32.36;84.80;100883.41;5036575;28;66074;-33
2024/04/05 02:38:05;;;;;;;5.05;4.55;;;;;;;32.41;84.69;100889.81;5033860;28;70339;-35
2024/04/05 02:40:35;;;;;;;6.97;4.00;;;;;;;32.40;84.58;100874.59;5035556;28;65680;-33
2024/04/05 02:43:03;;;;;;;4.50;4.10;;;;;;;32.40;84.80;100880.03;5037652;28;69902;-33
2024/04/05 02:45:32;;;;;;;4.38;4.05;;;;;;;32.41;84.53;100872.69;5037418;28;66477;-33
2024/04/05 02:48:03;;;;;;;4.68;4.28;;;;;;;32.48;84.44;100884.31;5036751;28;69582;-33
2024/04/05 02:50:32;;;;;;;4.53;4.13;;;;;;;32.48;84.38;100881.59;5021917;28;66684;-33
2024/04/05 02:53:00;;;;;;;4.70;4.20;;;;;;;32.55;84.21;100878.78;5036080;28;70507;-33
2024/04/05 02:55:30;;;;;;;5.47;4.60;;;;;;;32.55;84.18;100868.75;5028281;28;66371;-34
2024/04/05 02:57:59;;;;;;;4.65;4.35;;;;;;;32.59;84.17;100866.41;5037786;28;70338;-33
2024/04/05 03:00:28;;;;;;;4.75;4.35;;;;;;;32.57;84.27;100857.66;5020518;28;66508;-33
2024/04/05 03:02:57;;;;;;;6.03;4.10;;;;;;;32.60;84.12;100857.22;5036968;28;70234;-33
2024/04/05 03:05:26;;;;;;;4.53;4.05;;;;;;;32.61;84.23;100854.25;5038745;28;66299;-34
2024/04/05 03:07:55;;;;;;;7.00;4.53;;;;;;;32.65;84.07;100854.59;5033210;28;70538;-33
2024/04/05 03:10:25;;;;;;;6.13;4.10;;;;;;;32.67;84.09;100849.75;5013030;28;66455;-33
2024/04/05 03:12:53;;;;;;;3.80;3.50;;;;;;;32.71;83.80;100845.53;5020995;28;69907;-34
2024/04/05 03:15:23;;;;;;;4.53;4.05;;;;;;;32.73;83.84;100835.25;5036584;28;66535;-33
2024/04/05 03:17:52;;;;;;;4.40;4.10;;;;;;;32.76;83.86;100842.91;5019140;28;70274;-34
2024/04/05 03:20:22;;;;;;;4.03;3.72;;;;;;;32.77;83.66;100833.72;5035435;28;66383;-33
2024/04/05 03:22:53;;;;;;;4.38;4.07;;;;;;;32.81;83.57;100837.63;5036374;28;70828;-33
2024/04/05 03:25:22;;;;;;;4.50;4.10;;;;;;;32.82;83.49;100827.56;5036998;28;65893;-34
2024/04/05 03:27:51;;;;;;;4.40;4.10;;;;;;;32.84;83.48;100831.72;5036782;28;70586;-33
2024/04/05 03:30:20;;;;;;;4.97;4.03;;;;;;;32.89;83.47;100823.69;5034451;28;66605;-33
2024/04/05 03:32:48;;;;;;;6.00;4.03;;;;;;;32.91;83.45;100823.47;5037200;28;70415;-33
2024/04/05 03:35:19;;;;;;;5.57;3.63;;;;;;;32.92;83.17;100817.78;5035153;28;66167;-34
2024/04/05 03:37:51;;;;;;;9.77;4.38;;;;;;;32.98;83.20;100821.44;5032645;28;69568;-34
2024/04/05 03:40:21;;;;;;;4.40;4.10;;;;;;;33.01;83.17;100820.19;5018720;28;65681;-35
2024/04/05 03:42:50;;;;;;;4.57;4.22;;;;;;;33.05;83.21;100815.94;5037709;28;69556;-34
2024/04/05 03:45:21;;;;;;;4.45;4.13;;;;;;;33.07;82.82;100813.78;5035332;28;66548;-34
2024/04/05 03:47:50;;;;;;;7.75;4.20;;;;;;;33.10;82.93;100818.78;5035285;28;70169;-40
2024/04/05 03:50:19;;;;;;;4.45;3.63;;;;;;;33.08;82.54;100804.59;5034276;28;65576;-33
2024/04/05 03:52:48;;;;;;;4.55;3.70;;;;;;;33.15;82.78;100799.84;5032213;28;69852;-34
2024/04/05 03:55:17;;;;;;;3.97;3.58;;;;;;;33.17;83.10;100803.16;5036023;28;65459;-34
2024/04/05 03:57:50;;;;;;;4.22;3.75;;;;;;;33.21;82.70;100800.78;5039687;28;70398;-34
2024/04/05 04:00:22;;;;;;;4.93;4.43;;;;;;;33.23;82.54;100799.47;5038452;28;66401;-34
2024/04/05 04:02:52;;;;;;;4.50;3.97;;;;;;;33.25;82.84;100783.75;5041129;28;70333;-33
2024/04/05 04:05:21;;;;;;;4.70;3.65;;;;;;;33.29;82.57;100778.66;5032552;28;66581;-35
2024/04/05 04:07:50;;;;;;;3.90;3.60;;;;;;;33.30;82.54;100786.59;5038767;28;70067;-34
2024/04/05 04:10:20;;;;;;;4.10;3.80;;;;;;;33.32;82.44;100773.59;5038314;28;66131;-34
2024/04/05 04:12:49;;;;;;;3.95;3.65;;;;;;;33.36;82.11;100774.75;5034862;28;69343;-34
2024/04/05 04:15:18;;;;;;;4.15;3.83;;;;;;;33.38;82.68;100777.25;5038653;28;66394;-34
2024/04/05 04:17:49;;;;;;;4.33;4.03;;;;;;;33.40;82.17;100774.28;5027972;28;71687;-35
2024/04/05 04:20:19;;;;;;;6.63;4.10;;;;;;;33.46;82.06;100778.75;5039583;28;66478;-34
2024/04/05 04:22:48;;;;;;;6.43;3.75;;;;;;;33.43;82.22;100757.47;5038728;28;69836;-33
2024/04/05 04:25:17;;;;;;;4.22;3.92;;;;;;;33.50;81.94;100769.88;5040854;28;65855;-33
2024/04/05 04:27:46;;;;;;;3.92;3.63;;;;;;;33.53;82.37;100763.16;5039611;28;70683;-35
2024/04/05 04:30:15;;;;;;;3.90;3.60;;;;;;;33.55;82.19;100767.31;5039611;28;66435;-35
2024/04/05 04:32:45;;;;;;;4.88;4.03;;;;;;;33.57;82.37;100748.84;5033718;28;70838;-34
2024/04/05 04:35:14;;;;;;;4.13;3.80;;;;;;;33.59;81.92;100754.03;5023058;28;67653;-32
2024/04/05 04:37:43;;;;;;;4.20;3.90;;;;;;;33.62;82.35;100750.00;5038825;28;70309;-33
2024/04/05 04:40:12;;;;;;;4.32;4.03;;;;;;;33.61;82.25;100735.59;5034809;28;66513;-34
2024/04/05 04:42:41;;;;;;;3.97;3.67;;;;;;;33.68;82.02;100733.53;5039635;28;68635;-34
2024/04/05 04:45:10;;;;;;;4.90;4.00;;;;;;;33.68;82.00;100730.81;5039324;28;66077;-33
2024/04/05 04:47:39;;;;;;;3.85;3.65;;;;;;;33.68;82.11;100717.22;5037558;28;70927;-33
2024/04/05 04:50:08;;;;;;;3.55;3.35;;;;;;;33.76;81.82;100718.72;5039190;28;66406;-34
2024/04/05 04:52:37;;;;;;;3.60;3.30;;;;;;;33.79;81.76;100713.63;5039281;28;69251;-33
2024/04/05 04:55:09;;;;;;;3.85;3.38;;;;;;;33.81;81.70;100711.47;5037854;28;66610;-33
2024/04/05 04:57:38;;;;;;;4.22;3.20;;;;;;;33.83;81.84;100697.63;5022395;28;70165;-33
2024/04/05 05:00:09;;;;;;;4.20;3.63;;;;;;;33.88;81.53;100702.34;5039423;28;66524;-34
2024/04/05 05:02:38;;;;;;;4.37;3.97;;;;;;;33.89;81.83;100701.28;5034828;28;71312;-33
2024/04/05 05:05:11;;;;;;;3.70;3.40;;;;;;;33.93;81.39;100694.25;5038996;28;66200;-34
2024/04/05 05:07:40;;;;;;;3.90;3.60;;;;;;;33.95;81.60;100694.84;5022614;28;69721;-33
2024/04/05 05:10:09;;;;;;;4.35;4.05;;;;;;;33.97;81.82;100688.09;5038304;28;66023;-34
2024/04/05 05:12:39;;;;;;;3.80;3.60;;;;;;;33.96;81.43;100675.56;5022863;28;69876;-34
2024/04/05 05:15:09;;;;;;;4.57;4.28;;;;;;;34.03;81.66;100676.22;5038322;28;66527;-36
2024/04/05 05:17:38;;;;;;;4.15;3.78;;;;;;;34.05;81.74;100678.72;5034076;28;70399;-34
2024/04/05 05:20:08;;;;;;;4.53;4.15;;;;;;;34.07;81.50;100660.25;5038551;28;65957;-34
2024/04/05 05:22:38;;;;;;;4.97;3.58;;;;;;;34.10;81.51;100659.78;5008343;28;70046;-34
2024/04/05 05:25:06;;;;;;;4.65;4.25;;;;;;;34.10;81.73;100643.44;5033598;28;66607;-34
2024/04/05 05:27:36;;;;;;;4.80;4.50;;;;;;;34.16;81.40;100642.44;5026738;28;69839;-33
2024/04/05 05:30:05;;;;;;;3.92;3.63;;;;;;;34.17;81.53;100638.63;5037675;28;65668;-34
2024/04/05 05:32:35;;;;;;;5.07;4.13;;;;;;;34.21;81.50;100623.47;5013950;28;70933;-34
2024/04/05 05:35:06;;;;;;;4.25;3.95;;;;;;;34.25;81.34;100621.06;5031917;28;66804;-33
2024/04/05 05:37:35;;;;;;;4.50;4.10;;;;;;;34.28;81.44;100617.00;5032018;28;70529;-34
2024/04/05 05:40:04;;;;;;;5.00;4.70;;;;;;;34.27;81.30;100605.31;5035909;28;66806;-33
2024/04/05 05:42:33;;;;;;;4.50;3.83;;;;;;;34.29;81.38;100596.88;5038310;28;70420;-33
2024/04/05 05:45:02;;;;;;;4.93;4.07;;;;;;;34.33;81.19;100589.88;5022136;28;65459;-34
2024/04/05 05:47:34;;;;;;;4.40;3.80;;;;;;;34.40;81.29;100587.78;5032517;28;70645;-34
2024/04/05 05:50:04;;;;;;;4.10;3.72;;;;;;;34.42;81.00;100591.06;5038577;28;65622;-33
2024/04/05 05:52:33;;;;;;;5.07;4.68;;;;;;;34.45;81.16;100587.84;5037945;28;70110;-34
2024/04/05 05:55:05;;;;;;;5.30;3.70;;;;;;;34.30;80.71;100554.94;5014194;28;65485;-33
2024/04/05 05:57:38;;;;;;;4.07;3.78;;;;;;;34.50;80.86;100582.47;5014365;28;70391;-33
2024/04/05 06:00:09;;;;;;;4.28;3.97;;;;;;;34.48;80.84;100562.81;5033743;28;66547;-35
2024/04/05 06:02:41;;;;;;;4.82;4.43;;;;;;;34.57;80.86;100576.84;5033579;28;70078;-34
2024/04/05 06:05:11;;;;;;;4.20;3.90;;;;;;;34.60;80.56;100566.28;5021535;28;66565;-33
2024/04/05 06:07:41;;;;;;;4.05;3.85;;;;;;;34.56;80.89;100545.25;5033650;28;70540;-34
2024/04/05 06:10:10;;;;;;;5.20;4.70;;;;;;;34.66;80.86;100551.66;5014784;28;65329;-34
2024/04/05 06:12:41;;;;;;;4.40;4.20;;;;;;;34.68;80.35;100546.75;5026334;28;69851;-34
2024/04/05 06:15:10;;;;;;;4.20;3.90;;;;;;;34.74;80.32;100544.09;5036181;28;65947;-36
2024/04/05 06:17:40;;;;;;;4.55;4.18;;;;;;;34.78;80.04;100537.06;5038147;28;70710;-34
2024/04/05 06:20:12;;;;;;;4.75;4.45;;;;;;;34.83;80.03;100534.41;5037688;28;65754;-34
2024/04/05 06:22:42;;;;;;;4.78;4.38;;;;;;;34.85;79.96;100524.06;5023835;28;69864;-33
2024/04/05 06:25:11;;;;;;;4.50;4.20;;;;;;;34.87;80.28;100520.00;5038883;28;66841;-36
2024/04/05 06:27:41;;;;;;;4.13;3.83;;;;;;;34.90;80.40;100529.56;4993007;28;70114;-34
2024/04/05 06:30:12;;;;;;;4.55;4.25;;;;;;;34.93;79.82;100518.16;5007458;28;66039;-34
2024/04/05 06:32:43;;;;;;;4.88;4.47;;;;;;;34.97;80.17;100515.75;5037920;28;70311;-33
2024/04/05 06:35:13;;;;;;;4.75;3.80;;;;;;;35.01;79.84;100517.69;4989236;28;66541;-34
2024/04/05 06:37:41;;;;;;;4.72;4.40;;;;;;;35.06;79.54;100512.31;5037038;28;70038;-33
2024/04/05 06:40:12;;;;;;;4.28;4.07;;;;;;;35.09;79.96;100503.63;5036200;28;66638;-34
2024/04/05 06:42:42;;;;;;;4.37;4.07;;;;;;;34.97;79.82;100467.50;5033856;28;68902;-34
2024/04/05 06:45:12;;;;;;;4.63;4.30;;;;;;;35.20;79.54;100495.56;5020546;28;66499;-33
2024/04/05 06:47:41;;;;;;;4.47;4.07;;;;;;;35.23;79.14;100486.84;5020709;28;69024;-34
2024/04/05 06:50:10;;;;;;;4.40;4.10;;;;;;;35.25;79.67;100476.50;5038486;28;66479;-33
2024/04/05 06:52:39;;;;;;;4.78;4.53;;;;;;;35.23;79.45;100470.50;5036820;28;70142;-34
2024/04/05 06:55:08;;;;;;;4.55;4.18;;;;;;;35.35;79.48;100482.03;5037751;28;66529;-34
2024/04/05 06:57:38;;;;;;;4.28;3.97;;;;;;;35.39;78.77;100479.63;5021115;28;68612;-34
2024/04/05 07:00:10;;;;;;;4.85;4.32;;;;;;;35.45;79.26;100478.59;5037578;28;65264;-33
2024/04/05 07:02:40;;;;;;;4.97;4.55;;;;;;;35.48;78.65;100473.41;5030948;28;70020;-34
2024/04/05 07:05:10;;;;;;;4.40;4.13;;;;;;;35.47;78.35;100469.06;5034208;28;65637;-33
2024/04/05 07:07:39;;;;;;;3.90;3.70;;;;;;;35.55;78.86;100468.56;5020192;28;69169;-34
2024/04/05 07:10:10;;;;;;;4.68;4.35;;;;;;;35.61;78.61;100471.34;5036275;28;66465;-34
2024/04/05 07:12:41;;;;;;;4.05;3.75;;;;;;;35.66;78.71;100471.38;5037157;28;70325;-33
2024/04/05 07:15:11;;;;;;;4.30;4.00;;;;;;;35.68;77.90;100461.03;5015715;28;64925;-33
2024/04/05 07:17:40;;;;;;;4.80;4.50;;;;;;;35.76;78.07;100464.06;5028501;28;69243;-34
2024/04/05 07:20:11;;;;;;;5.07;4.63;;;;;;;35.81;78.57;100460.56;5036993;28;66552;-34
2024/04/05 07:22:40;;;;;;;5.50;3.70;;;;;;;35.85;78.36;100456.22;5021756;28;70780;-34
2024/04/05 07:25:09;;;;;;;4.22;3.83;;;;;;;35.88;78.29;100455.69;5037332;28;66984;-34
2024/04/05 07:27:38;;;;;;;4.55;4.25;;;;;;;35.89;77.71;100446.44;5035417;28;70491;-34
2024/04/05 07:30:08;;;;;;;4.43;4.13;;;;;;;35.97;77.98;100453.28;5020778;28;66370;-33
2024/04/05 07:32:37;;;;;;;4.10;3.90;;;;;;;36.00;77.66;100447.31;5037265;28;70452;-34
2024/04/05 07:35:06;;;;;;;4.40;4.10;;;;;;;36.06;77.40;100440.00;5030117;28;65535;-33
2024/04/05 07:37:35;;;;;;;4.72;4.43;;;;;;;36.11;77.83;100442.72;5040231;28;70579;-34
2024/04/05 07:40:08;;;;;;;5.97;4.13;;;;;;;36.15;77.69;100439.19;5038569;28;66268;-35
2024/04/05 07:42:37;;;;;;;4.05;3.85;;;;;;;36.23;78.14;100440.59;5040705;28;69325;-34
2024/04/05 07:45:06;;;;;;;5.40;5.10;;;;;;;36.27;77.41;100441.69;5023678;28;66576;-34
2024/04/05 07:47:35;;;;;;;6.90;4.55;;;;;;;36.29;77.66;100434.06;5039397;28;70186;-34
2024/04/05 07:50:04;;;;;;;5.22;4.32;;;;;;;36.34;77.77;100431.34;5022790;28;65993;-34
2024/04/05 07:52:33;;;;;;;4.97;4.68;;;;;;;36.38;77.38;100426.97;5039147;28;69632;-33
2024/04/05 07:55:03;;;;;;;5.32;4.82;;;;;;;36.43;77.49;100431.63;5022663;28;66599;-34
2024/04/05 07:57:33;;;;;;;4.82;4.53;;;;;;;36.47;77.41;100430.03;5033654;28;70118;-34
2024/04/05 08:00:05;;;;;;;4.72;4.32;;;;;;;36.51;77.08;100425.66;5034044;28;66096;-33
2024/04/05 08:02:36;;;;;;;4.75;4.30;;;;;;;36.52;77.21;100418.28;5023161;28;69897;-35
2024/04/05 08:05:05;;;;;;;4.90;4.50;;;;;;;36.61;77.08;100419.41;5040573;28;66636;-34
2024/04/05 08:07:39;;;;;;;4.68;4.38;;;;;;;36.65;76.32;100417.78;5039344;28;70382;-34
2024/04/05 08:10:12;;;;;;;4.97;4.68;;;;;;;36.70;76.84;100425.19;5038710;28;66101;-33
2024/04/05 08:12:42;;;;;;;4.40;4.03;;;;;;;36.69;76.18;100405.22;5040049;28;69145;-34
2024/04/05 08:15:12;;;;;;;5.55;4.30;;;;;;;36.61;76.37;100392.06;5038829;28;67136;-35
2024/04/05 08:17:40;;;;;;;9.50;5.13;;;;;;;36.82;76.14;100426.53;5040279;28;70221;-33
2024/04/05 08:20:10;;;;;;;6.80;6.20;;;;;;;36.89;76.14;100424.38;5023167;28;65742;-34
2024/04/05 08:22:39;;;;;;;7.15;6.60;;;;;;;36.95;75.53;100425.19;5037185;28;70283;-34
2024/04/05 08:25:08;;;;;;;6.68;6.18;;;;;;;36.99;75.53;100425.47;5019479;28;66358;-37
2024/04/05 08:27:37;;;;;;;7.38;6.82;;;;;;;37.01;76.08;100417.81;5039498;28;70615;-33
2024/04/05 08:30:07;;;;;;;7.07;6.50;;;;;;;37.07;75.95;100416.75;5006693;28;66637;-34
2024/04/05 08:32:36;;;;;;;6.45;6.03;;;;;;;37.10;75.93;100422.47;5039254;28;71358;-33
2024/04/05 08:35:05;;;;;;;6.53;6.07;;;;;;;37.15;75.39;100418.94;5039433;28;66025;-34
2024/04/05 08:37:34;;;;;;;6.68;6.13;;;;;;;37.17;75.69;100424.97;5027885;28;70266;-33
2024/04/05 08:40:05;;;;;;;7.03;6.25;;;;;;;37.23;75.82;100425.78;5039523;28;65982;-34
2024/04/05 08:42:37;;;;;;;6.40;6.00;;;;;;;37.24;75.57;100422.75;5028256;28;70533;-34
2024/04/05 08:45:06;;;;;;;5.97;5.28;;;;;;;37.24;75.37;100420.00;5037261;28;65344;-35
2024/04/05 08:47:38;;;;;;;6.00;5.60;;;;;;;37.31;75.20;100420.56;5039285;28;70503;-33
2024/04/05 08:50:08;;;;;;;6.93;6.20;;;;;;;37.18;75.31;100382.84;5039285;28;65550;-33
2024/04/05 08:52:37;;;;;;;5.72;5.25;;;;;;;37.38;75.28;100424.94;5021584;28;68934;-34
2024/04/05 08:55:07;;;;;;;6.32;5.93;;;;;;;37.44;74.71;100412.88;5039741;28;66185;-35
2024/04/05 08:57:43;;;;;;;6.10;5.60;;;;;;;37.45;74.81;100414.53;5022419;28;69603;-34
2024/04/05 09:00:22;;;;;;;6.50;5.25;;;;;;;37.27;74.04;100381.16;5028166;28;66346;-33
2024/04/05 09:02:53;;;;;;;6.07;5.50;;;;;;;37.30;74.60;100377.88;5035192;28;69590;-34
2024/04/05 09:05:25;;;;;;;5.43;5.00;;;;;;;37.54;74.48;100412.88;5034130;28;65694;-33
2024/04/05 09:08:05;;;;;;;5.45;5.15;;;;;;;37.49;73.74;100401.94;5033194;28;70222;-34
2024/04/05 09:10:36;;;;;;;4.97;4.68;;;;;;;37.56;74.34;100402.50;5037752;28;65833;-33
2024/04/05 09:13:05;;;;;;;5.95;5.07;;;;;;;37.58;74.95;100405.75;5031292;28;70737;-34
2024/04/05 09:15:34;;;;;;;4.88;4.47;;;;;;;37.61;74.76;100399.72;5027232;28;66794;-33
2024/04/05 09:18:03;;;;;;;5.47;5.00;;;;;;;37.58;74.40;100402.19;5034480;28;70485;-34
2024/04/05 09:20:34;;;;;;;5.43;4.93;;;;;;;37.59;74.26;100406.59;5014817;28;65690;-34
2024/04/05 09:23:10;;;;;;;11.80;5.72;;;;;;;37.33;74.35;100371.88;5032097;28;70137;-35
2024/04/05 09:25:40;;;;;;;8.55;5.82;;;;;;;37.51;74.96;100410.72;5023273;28;66629;-34
2024/04/05 09:28:13;;;;;;;5.65;5.28;;;;;;;37.24;75.30;100372.69;5024344;28;70541;-34
2024/04/05 09:30:44;;;;;;;6.00;5.03;;;;;;;37.41;75.19;100416.16;5036237;28;66864;-34
2024/04/05 09:33:19;;;;;;;5.53;5.03;;;;;;;37.27;74.90;100410.44;5037766;28;69996;-33
2024/04/05 09:35:49;;;;;;;5.75;4.60;;;;;;;37.37;74.77;100412.34;5038362;28;65605;-33
2024/04/05 09:38:19;;;;;;;5.65;5.10;;;;;;;37.31;75.04;100417.81;5039136;28;70277;-34
2024/04/05 09:40:51;;;;;;;6.68;5.30;;;;;;;37.07;75.02;100392.13;5026005;28;66157;-34
2024/04/05 09:43:24;;;;;;;10.27;5.30;;;;;;;37.18;75.00;100418.38;5038028;28;70447;-33
2024/04/05 09:45:53;;;;;;;6.13;4.88;;;;;;;37.23;74.95;100423.84;5020945;28;66823;-34
2024/04/05 09:48:23;;;;;;;5.40;5.00;;;;;;;37.22;75.01;100430.44;5031225;28;69472;-35
2024/04/05 09:50:53;;;;;;;6.82;5.40;;;;;;;37.16;75.52;100434.25;5039136;28;65269;-35
2024/04/05 09:53:23;;;;;;;5.88;5.43;;;;;;;37.16;74.94;100428.75;5036904;28;70399;-33
2024/04/05 09:55:57;;;;;;;5.22;4.55;;;;;;;37.07;75.39;100444.91;5034036;28;66465;-35
2024/04/05 09:58:26;;;;;;;6.03;5.18;;;;;;;37.11;75.66;100434.22;5034812;28;70596;-33
2024/04/05 10:00:56;;;;;;;5.15;4.72;;;;;;;37.03;75.27;100429.34;5034401;28;65702;-36
2024/04/05 10:03:25;;;;;;;6.70;4.80;;;;;;;37.06;75.95;100443.28;5038059;28;69874;-34
2024/04/05 10:05:54;;;;;;;5.55;4.97;;;;;;;36.96;75.82;100447.88;5037570;28;66696;-33
2024/04/05 10:08:28;;;;;;;9.88;6.05;;;;;;;36.95;75.64;100457.19;5037938;28;70298;-34
2024/04/05 10:10:57;;;;;;;7.88;5.35;;;;;;;36.97;75.53;100461.28;5036498;28;66157;-35
2024/04/05 10:13:26;;;;;;;6.93;4.75;;;;;;;36.95;75.53;100462.66;5038713;28;70058;-33
2024/04/05 10:16:04;;;;;;;6.25;4.47;;;;;;;36.87;75.81;100466.75;5022145;28;66646;-35
2024/04/05 10:18:38;;;;;;;7.25;5.60;;;;;;;36.87;75.62;100473.03;5021842;28;70214;-34
2024/04/05 10:21:09;;;;;;;5.57;5.10;;;;;;;36.81;75.67;100473.31;5036165;28;66363;-34
2024/04/05 10:23:39;;;;;;;6.10;5.20;;;;;;;36.79;75.80;100470.81;5038441;28;69847;-34
2024/04/05 10:26:17;;;;;;;5.07;4.60;;;;;;;36.74;75.91;100468.06;5036163;28;65580;-34
2024/04/05 10:28:47;;;;;;;10.93;4.60;;;;;;;36.72;76.25;100481.22;5036185;28;69456;-35
2024/04/05 10:31:45;;;;;;;6.43;4.80;;;;;;;36.71;76.21;100478.72;5011931;28;65324;-34
2024/04/05 10:34:25;;;;;;;9.57;5.35;;;;;;;36.67;76.22;100478.47;5034131;28;69990;-35
2024/04/05 10:36:56;;;;;;;5.78;5.28;;;;;;;36.65;75.86;100483.38;5036829;28;66566;-33
2024/04/05 10:39:25;;;;;;;4.93;4.53;;;;;;;36.57;76.53;100489.34;5028139;28;70607;-34
2024/04/05 10:41:54;;;;;;;5.57;5.07;;;;;;;36.55;76.20;100489.59;5033059;28;66097;-34
2024/04/05 10:44:24;;;;;;;6.45;5.22;;;;;;;36.55;75.81;100497.81;5019383;28;69846;-34
2024/04/05 10:46:53;;;;;;;5.57;5.05;;;;;;;36.55;75.84;100499.72;5037833;28;66442;-34
2024/04/05 10:49:22;;;;;;;5.68;5.18;;;;;;;36.46;76.71;100494.75;5036355;28;70822;-34
2024/04/05 10:51:58;;;;;;;5.15;4.65;;;;;;;36.46;76.85;100505.66;5036657;28;66682;-33
2024/04/05 10:54:28;;;;;;;7.60;5.13;;;;;;;36.36;76.46;100502.06;5023977;28;69238;-34
2024/04/05 10:57:02;;;;;;;5.57;5.07;;;;;;;36.37;77.02;100512.75;5036643;28;66633;-34
2024/04/05 10:59:31;;;;;;;5.68;5.20;;;;;;;36.32;76.83;100517.38;5036305;28;70691;-33
2024/04/05 11:02:00;;;;;;;5.88;5.18;;;;;;;36.28;77.38;100525.28;5037635;28;65194;-34
2024/04/05 11:04:28;;;;;;;5.45;5.00;;;;;;;36.19;76.66;100515.94;5033948;28;70136;-33
2024/04/05 11:07:00;;;;;;;6.00;5.50;;;;;;;36.22;76.68;100526.34;5035947;28;65710;-35
2024/04/05 11:09:35;;;;;;;5.90;5.40;;;;;;;36.21;77.37;100530.16;5035393;28;70624;-35
2024/04/05 11:12:05;;;;;;;5.93;5.43;;;;;;;36.20;76.86;100539.44;5037315;28;67441;-35
2024/04/05 11:14:34;;;;;;;10.18;4.95;;;;;;;36.19;76.80;100533.16;5037277;28;70528;-34
2024/04/05 11:17:03;;;;;;;6.95;5.05;;;;;;;36.15;77.22;100526.56;5018567;28;66518;-34
2024/04/05 11:19:33;;;;;;;6.40;5.63;;;;;;;36.10;77.25;100539.38;5035764;28;70522;-34
2024/04/05 11:22:07;;;;;;;7.18;5.28;;;;;;;36.06;77.62;100535.53;5021728;28;65455;-34
2024/04/05 11:24:37;;;;;;;5.60;5.10;;;;;;;36.03;77.82;100545.84;5031657;28;70322;-35
2024/04/05 11:27:06;;;;;;;6.53;5.93;;;;;;;36.03;77.54;100540.41;5036894;28;66346;-33
2024/04/05 11:29:35;;;;;;;6.18;5.68;;;;;;;36.00;77.28;100551.84;5035679;28;69937;-34
2024/04/05 11:32:04;;;;;;;5.47;5.07;;;;;;;35.98;77.50;100551.28;5036500;28;65298;-34
2024/04/05 11:34:33;;;;;;;6.55;5.15;;;;;;;35.96;78.05;100561.63;5038055;28;70639;-34
2024/04/05 11:37:01;;;;;;;29.35;6.07;;;;;;;35.95;77.71;100568.19;5038304;28;65318;-34